Terminal Aerodrome Forecast
Issued by NWS Shreveport, LA

Home | Current Version | Previous Version | Text Only | Print | Product List | Glossary On
Versions: 1 2 3 4 5 6 7 8 9 10 11 12 13 14 15 16 17 18 19 20
323
FTUS44 KSHV 172320
TAFMLU
TAF
KMLU 172320Z 1800/1824 01005KT P6SM VCSH SCT007 BKN060 OVC080
      TEMPO 1800/1804 3SM -SHRA BR BKN007
     FM180400 02005KT 5SM BR VCSH OVC007
      TEMPO 1808/1812 3SM BR OVC005
     FM181200 07004KT 4SM BR VCSH OVC005
     FM181600 VRB06KT 5SM -SHRA BR OVC005
     FM182000 VRB06KT 3SM -SHRA BR OVC007=

USA.gov is the U.S. government's official web portal to all federal, state and local government web resources and services.